メインページ
METAR-TAF:

METAR-TAF

空港 :

ジュノー国際空港

ジュノー, アラスカ州, アメリカ合衆国

緯度: 58-21-17N, 経度: 134-34-34W, 海抜: 6m

現時点の気象観測

当レポートは1時間4分前の22:53(UTC)に作成
の風 8kt
気温 14°C
湿度 82%
気圧 1018 hPa
視程: 16.1km
高度1100ftの雲はほとんどない
高度4800ftの雲は散在している
高度7000ftの千切れ雲あり
高度20000ftの曇り

METAR: PAJN 162253Z 09008KT 10SM FEW011 SCT048 BKN070 OVC200 14/11 A3006 RMK AO2 SLP180 T01390111

時間: 15:57 (23:57 UTC)

予報

当レポートは32分前の23:25(UTC)に作成
予報は17日の 00時(UTC)から 17日の 24時(UTC)まで有効
の風 9kt
視程: 10km
高度1000ftの雲はほとんどない
高度4500ftの千切れ雲あり
高度8000ftの曇り
弱いにわか雨
17日の 0500時(UTC)から
の風 4kt
視程: 10km
高度1000ftの雲は散在している
高度3500ftの千切れ雲あり
高度8000ftの曇り
近辺でにわか雨
17日の 1200時(UTC)から
変向風 2kt
視程: 10km
高度500ftの雲は散在している
高度3500ftの曇り
近辺でにわか雨
17日の 2000時(UTC)から
西の風 6kt
視程: 10km
高度4500ftの千切れ雲あり
高度15000ftの曇り
近辺でにわか雨

TAF: PAJN 162325Z 1700/1724 09009KT P6SM -SHRA FEW010 BKN045 OVC080 FM170500 09004KT P6SM VCSH SCT010 BKN035 OVC080 FM171200 VRB02KT P6SM VCSH SCT005 OVC035 FM172000 27006KT P6SM VCSH BKN045 OVC150

4,000以上の空港の気象観測と天気予報(METAR報とTAF報)

利用可能な観測所は地図上に黄色い丸と赤い丸で示す。

丸の上にカーソルを重ねると観測所名を参照できる。

次にクリックすると気象観測と天気予報を参照できる。

マップの切り替え:黒色「×」印の緑ボタンをクリックして拡大、「-」印の緑ボタンをクリックして縮小、緑色の三角印をクリックして隣りの地図に切り替え


METAR-TAF: